Airfield :
LOGIN :

Register | Disclaimer

   EN    FR    IT 

 










Legend :    VFR   Marginal VFR   IFR   Intensive IFR   Very Intensive IFR
Visi :
Ceiling :
>= 8 km
>= 3000ft
5 to 8 km
1000 to 3000 ft
1500m to 5 km
500 to 1000 ft
800 to 1500m
200 to 500 ft
< 800m
< 200 ft
Symbols :   Thunderstorms  Fog  Heavy snow  Heavy precipitations  Wind > 20 kt
SIGMETs :     Misc.  Thunderstorms  Icing  Turbulence  Mountain Waves  Volcanic Ashes







- Airport Elevation : 1906 ft
- IATA code : INN


LOWI - Innsbruck

CURRENT METAR :
  • 222120Z AUTO VRB06KT 9999 OVC100 19/08 Q1014

EXPIRED METARs :
  • 222050Z 13008KT 060V190 9999 FEW060 BKN100 19/08 Q1014 NOSIG
  • 222020Z VRB04G14KT 9999 FEW060 BKN100 19/07 Q1014 NOSIG
  • 221950Z VRB05KT 9999 FEW060 BKN100 19/08 Q1014 NOSIG
  • 221920Z 13008KT 070V200 9999 FEW060 BKN100 19/07 Q1013 NOSIG
  • 221850Z VRB07KT 9999 FEW060 BKN090 19/07 Q1013 NOSIG

TAF TAF LOWI
Valid from the 22 at 18:00 until the 23 at 18:00 UTC


221715Z 2218/2318 08006KT 9999 FEW070 BKN300 TX24/2314Z TN13/2304Z
BECMG 2219/2221 27005KT CAVOK
BECMG 2309/2311 08007KT 9999 FEW070 SCT300
TEMPO 2313/2318 06010G25KT -SHRA FEW060CB BKN100
No reported NOTAMs for that airfield.



MET'MAP, your aeronautical weather chart ! - Copyright ORBIFLY December 2007 - Disclaimer

ORBIFLY MET'MAP TEAM :

Programming & Development : Alexandra Zaïnal
Concept & Development : Baudouin d'Aumeries
Co-Development & Prog : Marc-Olivier Méhu
Technical & hardware support : Manuel Goepfert

Contact : metmap@orbifly.com




SOURCES & CREDITS :

   NOAA